Time;durP1;ratioP1;P1;durP2;ratioP2;P2;SDS_P1;SDS_P2;PMS_P1;PMS_P2;Temp;Humidity;BMP_temperature;BMP_pressure;BME280_temperature;BME280_humidity;BME280_pressure;Samples;Min_cycle;Max_cycle;Signal;HPM_P1;HPM_P2
2023/09/06 00:01:42;;;;;;;4.60;3.67;;;20.50;99.90;;;;;;5053418;28;20418;-73
2023/09/06 00:04:17;;;;;;;4.53;3.63;;;20.40;99.90;;;;;;5052839;28;20462;-74
2023/09/06 00:06:49;;;;;;;4.17;3.50;;;20.40;99.90;;;;;;5053612;28;20834;-74
2023/09/06 00:09:19;;;;;;;5.20;3.80;;;20.30;99.90;;;;;;5051851;28;20478;-73
2023/09/06 00:11:47;;;;;;;3.77;3.40;;;20.30;99.90;;;;;;5051715;28;20441;-73
2023/09/06 00:14:19;;;;;;;4.87;3.23;;;20.30;99.90;;;;;;5052894;28;20485;-73
2023/09/06 00:16:48;;;;;;;4.10;3.43;;;20.20;99.90;;;;;;5051673;28;20533;-73
2023/09/06 00:19:18;;;;;;;4.50;3.97;;;20.20;99.90;;;;;;5052822;28;20442;-73
2023/09/06 00:21:48;;;;;;;3.40;3.10;;;20.20;99.90;;;;;;5051596;28;20448;-73
2023/09/06 00:24:16;;;;;;;4.30;3.90;;;20.10;99.90;;;;;;5052732;28;20580;-73
2023/09/06 00:26:49;;;;;;;4.97;3.77;;;20.10;99.90;;;;;;5053017;28;20982;-74
2023/09/06 00:29:18;;;;;;;6.20;3.90;;;20.10;99.90;;;;;;5052771;28;20465;-73
2023/09/06 00:31:46;;;;;;;4.30;3.90;;;20.00;99.90;;;;;;5053482;28;20537;-73
2023/09/06 00:34:15;;;;;;;5.17;4.17;;;20.00;99.90;;;;;;5051273;28;20470;-73
2023/09/06 00:36:44;;;;;;;5.90;3.97;;;20.00;99.90;;;;;;5052729;28;20439;-73
2023/09/06 00:39:14;;;;;;;4.87;4.37;;;20.00;99.90;;;;;;5052794;28;20446;-73
2023/09/06 00:41:44;;;;;;;4.30;3.83;;;19.90;99.90;;;;;;5052923;28;20460;-73
2023/09/06 00:44:14;;;;;;;4.60;3.87;;;19.90;99.90;;;;;;5051260;28;20484;-73
2023/09/06 00:46:42;;;;;;;5.00;4.10;;;19.80;99.90;;;;;;5055329;28;20488;-73
2023/09/06 00:49:10;;;;;;;4.10;3.70;;;19.80;99.90;;;;;;5055029;28;20450;-73
2023/09/06 00:51:39;;;;;;;4.77;4.37;;;19.80;99.90;;;;;;5056267;28;20939;-73
2023/09/06 00:54:07;;;;;;;6.33;5.20;;;19.80;99.90;;;;;;5056030;28;20469;-73
2023/09/06 00:56:39;;;;;;;7.03;4.80;;;19.70;99.90;;;;;;5055985;28;20496;-73
2023/09/06 00:59:10;;;;;;;5.60;5.00;;;19.70;99.90;;;;;;5056636;28;20476;-73
2023/09/06 01:01:38;;;;;;;5.50;5.00;;;19.70;99.90;;;;;;5056014;28;20411;-73
2023/09/06 01:04:07;;;;;;;6.17;5.10;;;19.60;99.90;;;;;;5055968;28;20469;-74
2023/09/06 01:06:40;;;;;;;5.93;5.20;;;19.60;99.90;;;;;;5054754;28;20430;-73
2023/09/06 01:09:09;;;;;;;7.07;5.50;;;19.60;99.90;;;;;;5054684;28;20488;-73
2023/09/06 01:11:42;;;;;;;6.93;5.40;;;19.60;99.90;;;;;;5056032;28;20505;-73
2023/09/06 01:14:11;;;;;;;9.13;5.67;;;19.50;99.90;;;;;;5054437;28;20478;-73
2023/09/06 01:16:42;;;;;;;5.40;4.90;;;19.50;99.90;;;;;;5054477;28;20453;-73
2023/09/06 01:19:13;;;;;;;6.50;5.90;;;19.40;99.90;;;;;;5055875;28;20955;-73
2023/09/06 01:21:51;;;;;;;6.27;5.27;;;19.40;99.90;;;;;;5054443;28;20452;-73
2023/09/06 01:24:23;;;;;;;7.83;6.03;;;19.40;99.90;;;;;;5056350;28;20960;-73
2023/09/06 01:26:54;;;;;;;7.13;6.00;;;19.40;99.90;;;;;;5055626;28;20447;-73
2023/09/06 01:29:22;;;;;;;6.27;5.00;;;19.30;99.90;;;;;;5054308;28;20816;-73
2023/09/06 01:31:51;;;;;;;7.77;6.20;;;19.30;99.90;;;;;;5055444;28;20441;-73
2023/09/06 01:34:20;;;;;;;6.40;5.70;;;19.30;99.90;;;;;;5054265;28;20844;-73
2023/09/06 01:36:48;;;;;;;6.23;5.57;;;19.20;99.90;;;;;;5053973;28;20453;-73
2023/09/06 01:39:17;;;;;;;5.87;5.27;;;19.20;99.90;;;;;;5054345;28;20457;-73
2023/09/06 01:41:48;;;;;;;6.53;5.87;;;19.20;99.90;;;;;;5054142;28;20450;-73
2023/09/06 01:44:16;;;;;;;9.10;6.27;;;19.20;99.90;;;;;;5054412;28;20466;-73
2023/09/06 01:46:45;;;;;;;7.70;5.47;;;19.10;99.90;;;;;;5055115;28;20444;-73
2023/09/06 01:49:14;;;;;;;5.40;4.90;;;19.10;99.90;;;;;;5053935;28;20457;-73
2023/09/06 01:51:49;;;;;;;5.57;4.97;;;19.10;99.90;;;;;;5055258;28;20441;-73
2023/09/06 01:54:17;;;;;;;6.00;4.83;;;19.00;99.90;;;;;;5055425;28;20975;-73
2023/09/06 01:56:48;;;;;;;6.23;5.47;;;19.00;99.90;;;;;;5053183;28;20473;-73
2023/09/06 01:59:27;;;;;;;5.60;4.83;;;19.00;99.90;;;;;;5053852;28;20449;-74
2023/09/06 02:01:59;;;;;;;7.43;4.43;;;18.90;99.90;;;;;;5053750;28;20464;-73
2023/09/06 02:04:31;;;;;;;5.60;4.90;;;18.90;99.90;;;;;;5054698;28;20465;-73
2023/09/06 02:07:03;;;;;;;5.83;5.33;;;18.90;99.90;;;;;;5054818;28;20430;-74
2023/09/06 02:09:34;;;;;;;5.30;4.80;;;18.80;99.90;;;;;;5054872;28;20438;-73
2023/09/06 02:12:07;;;;;;;5.80;4.73;;;18.80;99.90;;;;;;5053541;28;20446;-73
2023/09/06 02:14:35;;;;;;;5.23;4.73;;;18.80;99.90;;;;;;5054617;28;20842;-73
2023/09/06 02:17:08;;;;;;;6.97;6.07;;;18.80;99.90;;;;;;5054691;28;20579;-73
2023/09/06 02:19:40;;;;;;;5.53;4.70;;;18.80;99.90;;;;;;5053444;28;20481;-73
2023/09/06 02:22:08;;;;;;;5.33;4.83;;;18.70;99.90;;;;;;5053173;28;20511;-73
2023/09/06 02:24:37;;;;;;;6.10;5.50;;;18.70;99.90;;;;;;5054440;28;20869;-73
2023/09/06 02:27:10;;;;;;;5.80;5.20;;;18.70;99.90;;;;;;5054443;28;20915;-73
2023/09/06 02:29:39;;;;;;;6.37;5.73;;;18.60;99.90;;;;;;5053178;28;20470;-73
2023/09/06 02:32:10;;;;;;;6.57;5.97;;;18.60;99.90;;;;;;5053041;28;20446;-72
2023/09/06 02:34:38;;;;;;;5.50;5.00;;;18.60;99.90;;;;;;5052964;28;20473;-72
2023/09/06 02:37:12;;;;;;;5.27;4.40;;;18.60;99.90;;;;;;5052895;28;20417;-73
2023/09/06 02:39:41;;;;;;;5.50;5.00;;;18.60;99.90;;;;;;5053044;28;20442;-73
2023/09/06 02:42:11;;;;;;;5.70;5.00;;;18.50;99.90;;;;;;5053173;28;20545;-73
2023/09/06 02:44:39;;;;;;;7.10;5.03;;;18.50;99.90;;;;;;5052914;28;20466;-72
2023/09/06 02:47:09;;;;;;;4.83;4.43;;;18.50;99.90;;;;;;5052975;28;20821;-72
2023/09/06 02:49:41;;;;;;;5.43;4.93;;;18.40;99.90;;;;;;5052950;28;20446;-73
2023/09/06 02:52:20;;;;;;;6.70;5.90;;;18.40;99.90;;;;;;5054686;28;20433;-72
2023/09/06 02:54:48;;;;;;;5.50;5.00;;;18.40;99.90;;;;;;5052934;28;20798;-72
2023/09/06 02:57:19;;;;;;;5.20;4.70;;;18.40;99.90;;;;;;5053064;28;20444;-72
2023/09/06 02:59:47;;;;;;;6.00;5.50;;;18.40;99.90;;;;;;5054795;28;20470;-72
2023/09/06 03:02:15;;;;;;;4.97;4.57;;;18.30;99.90;;;;;;5052526;28;20478;-72
2023/09/06 03:04:43;;;;;;;5.80;5.20;;;18.30;99.90;;;;;;5052898;28;20452;-72
2023/09/06 03:07:15;;;;;;;5.47;4.90;;;18.30;99.90;;;;;;5052531;28;20450;-72
2023/09/06 03:09:44;;;;;;;5.27;4.77;;;18.30;99.90;;;;;;5051565;28;20500;-72
2023/09/06 03:12:14;;;;;;;5.93;5.37;;;18.30;99.90;;;;;;5052418;28;20442;-72
2023/09/06 03:14:48;;;;;;;5.27;4.60;;;18.20;99.90;;;;;;5052396;28;20497;-73
2023/09/06 03:17:18;;;;;;;8.13;7.13;;;18.20;99.90;;;;;;5052246;28;20446;-73
2023/09/06 03:19:53;;;;;;;20.70;17.77;;;18.20;99.90;;;;;;5053057;28;20474;-72
2023/09/06 03:22:23;;;;;;;15.90;14.30;;;18.10;99.90;;;;;;5052325;28;20438;-72
2023/09/06 03:24:55;;;;;;;10.33;9.33;;;18.20;99.90;;;;;;5052354;28;20552;-72
2023/09/06 03:27:23;;;;;;;18.93;16.93;;;18.10;99.90;;;;;;5052348;28;20421;-72
2023/09/06 03:29:52;;;;;;;28.60;25.53;;;18.10;99.90;;;;;;5052466;28;20450;-72
2023/09/06 03:32:23;;;;;;;30.20;26.70;;;18.10;99.90;;;;;;5052415;28;20996;-72
2023/09/06 03:34:52;;;;;;;30.37;22.00;;;18.10;99.90;;;;;;5053389;28;20485;-72
2023/09/06 03:37:23;;;;;;;11.67;10.47;;;18.10;99.90;;;;;;5052666;28;20473;-72
2023/09/06 03:39:53;;;;;;;10.20;9.17;;;18.00;99.90;;;;;;5052453;28;20504;-72
2023/09/06 03:42:23;;;;;;;8.37;6.63;;;18.00;99.90;;;;;;5052366;28;20446;-72
2023/09/06 03:44:53;;;;;;;9.83;8.83;;;18.00;99.90;;;;;;5052433;28;20494;-72
2023/09/06 03:47:21;;;;;;;7.83;7.13;;;18.00;99.90;;;;;;5053046;28;20420;-72
2023/09/06 03:49:49;;;;;;;8.60;7.73;;;18.00;99.90;;;;;;5054235;28;20750;-72
2023/09/06 03:52:17;;;;;;;6.93;6.40;;;17.90;99.90;;;;;;5052598;28;20915;-72
2023/09/06 03:54:50;;;;;;;7.00;6.40;;;17.90;99.90;;;;;;5052771;28;20477;-72
2023/09/06 03:57:18;;;;;;;6.70;6.10;;;17.90;99.90;;;;;;5052538;28;20449;-72
2023/09/06 03:59:46;;;;;;;6.50;5.90;;;17.90;99.90;;;;;;5052776;28;20488;-72
2023/09/06 04:02:16;;;;;;;7.40;6.70;;;17.90;99.90;;;;;;5052738;28;20453;-72
2023/09/06 04:04:44;;;;;;;5.90;5.40;;;17.90;99.90;;;;;;5052350;28;20484;-72
2023/09/06 04:07:14;;;;;;;6.30;5.53;;;17.80;99.90;;;;;;5052864;28;20434;-72
2023/09/06 04:09:42;;;;;;;6.37;5.77;;;17.80;99.90;;;;;;5053065;28;20417;-72
2023/09/06 04:12:11;;;;;;;7.60;6.90;;;17.80;99.90;;;;;;5053986;28;20438;-72
2023/09/06 04:14:39;;;;;;;9.60;7.70;;;17.80;99.90;;;;;;5052550;28;20971;-72
2023/09/06 04:17:09;;;;;;;12.70;11.37;;;17.80;99.90;;;;;;5053913;28;20459;-72
2023/09/06 04:19:39;;;;;;;11.47;9.70;;;17.70;99.90;;;;;;5052812;28;20853;-72
2023/09/06 04:22:07;;;;;;;13.90;11.40;;;17.80;99.90;;;;;;5057549;28;20445;-72
2023/09/06 04:24:39;;;;;;;8.37;7.43;;;17.70;99.90;;;;;;5056625;28;20963;-72
2023/09/06 04:27:11;;;;;;;7.50;6.83;;;17.70;99.90;;;;;;5058232;28;20537;-71
2023/09/06 04:29:41;;;;;;;7.53;6.87;;;17.70;99.90;;;;;;5057113;28;20438;-72
2023/09/06 04:32:09;;;;;;;7.10;6.40;;;17.70;99.90;;;;;;5057193;28;20474;-72
2023/09/06 04:34:39;;;;;;;7.00;6.40;;;17.70;99.90;;;;;;5057433;28;20462;-72
2023/09/06 04:37:11;;;;;;;6.97;6.33;;;17.70;99.90;;;;;;5056723;28;20462;-72
2023/09/06 04:39:43;;;;;;;6.40;5.87;;;17.60;99.90;;;;;;5056274;28;20896;-72
2023/09/06 04:42:11;;;;;;;7.83;7.07;;;17.70;99.90;;;;;;5056482;28;20439;-72
2023/09/06 04:44:40;;;;;;;6.37;5.87;;;17.60;99.90;;;;;;5056425;28;20441;-72
2023/09/06 04:47:10;;;;;;;6.17;5.67;;;17.60;99.90;;;;;;5056120;28;20425;-72
2023/09/06 04:49:45;;;;;;;6.07;5.47;;;17.60;99.90;;;;;;5056374;28;20438;-72
2023/09/06 04:52:14;;;;;;;6.17;5.57;;;17.60;99.90;;;;;;5056007;28;20454;-72
2023/09/06 04:54:44;;;;;;;7.20;6.50;;;17.60;99.90;;;;;;5055938;28;20470;-72
2023/09/06 04:57:13;;;;;;;7.67;7.00;;;17.60;99.90;;;;;;5055371;28;20908;-72
2023/09/06 04:59:42;;;;;;;7.70;6.90;;;17.60;99.90;;;;;;5055409;28;20482;-72
2023/09/06 05:02:10;;;;;;;14.23;7.37;;;17.50;99.90;;;;;;5055611;28;20991;-72
2023/09/06 05:04:38;;;;;;;8.50;7.70;;;17.50;99.90;;;;;;5055187;28;20469;-72
2023/09/06 05:07:08;;;;;;;7.10;6.40;;;17.50;99.90;;;;;;5055246;28;20449;-72
2023/09/06 05:09:38;;;;;;;7.07;6.43;;;17.50;99.90;;;;;;5056792;28;20468;-72
2023/09/06 05:12:09;;;;;;;6.67;6.07;;;17.50;99.90;;;;;;5055933;28;20830;-72
2023/09/06 05:14:37;;;;;;;8.00;7.30;;;17.50;99.90;;;;;;5055341;28;20842;-72
2023/09/06 05:17:05;;;;;;;6.40;5.80;;;17.50;99.90;;;;;;5050107;28;20530;-72
2023/09/06 05:19:34;;;;;;;6.63;6.03;;;17.50;99.90;;;;;;5055287;28;20807;-72
2023/09/06 05:22:02;;;;;;;6.67;5.80;;;17.50;99.90;;;;;;5055512;28;20424;-72
2023/09/06 05:24:32;;;;;;;6.87;6.17;;;17.50;99.90;;;;;;5055286;28;20479;-72
2023/09/06 05:27:01;;;;;;;9.10;8.20;;;17.50;99.90;;;;;;5055127;28;20413;-72
2023/09/06 05:29:32;;;;;;;14.57;13.30;;;17.50;99.90;;;;;;5055102;28;20466;-72
2023/09/06 05:32:00;;;;;;;14.50;13.10;;;17.50;99.90;;;;;;5054150;28;21039;-72
2023/09/06 05:34:29;;;;;;;11.60;10.10;;;17.50;99.90;;;;;;5054799;28;20475;-72
2023/09/06 05:36:58;;;;;;;12.07;10.97;;;17.50;99.90;;;;;;5055078;28;20987;-72
2023/09/06 05:39:26;;;;;;;9.37;8.40;;;17.50;99.90;;;;;;5055273;28;20499;-72
2023/09/06 05:41:56;;;;;;;8.50;7.70;;;17.50;99.90;;;;;;5055302;28;20421;-72
2023/09/06 05:44:24;;;;;;;8.17;7.47;;;17.50;99.90;;;;;;5055605;28;20514;-72
2023/09/06 05:46:52;;;;;;;8.07;7.37;;;17.50;99.90;;;;;;5056339;28;20903;-72
2023/09/06 05:49:22;;;;;;;8.00;7.27;;;17.50;99.90;;;;;;5055476;28;20541;-72
2023/09/06 05:51:50;;;;;;;7.30;6.70;;;17.50;99.90;;;;;;5055950;28;20445;-72
2023/09/06 05:54:18;;;;;;;8.30;7.50;;;17.50;99.90;;;;;;5056134;28;20554;-72
2023/09/06 05:56:47;;;;;;;7.73;7.03;;;17.50;99.90;;;;;;5054829;28;20565;-72
2023/09/06 05:59:17;;;;;;;8.40;6.80;;;17.50;99.90;;;;;;5054666;28;20790;-72
2023/09/06 06:01:45;;;;;;;7.17;6.57;;;17.50;99.90;;;;;;5054885;28;20454;-72
2023/09/06 06:04:14;;;;;;;7.73;7.03;;;17.60;99.90;;;;;;5054722;28;20565;-72
2023/09/06 06:06:43;;;;;;;7.43;6.83;;;17.60;99.90;;;;;;5056017;28;20445;-72
2023/09/06 06:09:15;;;;;;;8.20;7.50;;;17.60;99.90;;;;;;5054680;28;20943;-72
2023/09/06 06:11:43;;;;;;;9.30;8.43;;;17.70;99.90;;;;;;5054494;28;20446;-72
2023/09/06 06:14:11;;;;;;;9.13;7.60;;;17.80;99.90;;;;;;5055704;28;20458;-72
2023/09/06 06:16:41;;;;;;;9.57;8.57;;;17.90;99.90;;;;;;5055602;28;20874;-72
2023/09/06 06:19:13;;;;;;;8.93;8.17;;;18.10;99.90;;;;;;5055604;28;20415;-72
2023/09/06 06:21:42;;;;;;;8.03;7.33;;;18.30;99.90;;;;;;5055271;28;20496;-72
2023/09/06 06:24:10;;;;;;;8.07;7.07;;;18.40;99.90;;;;;;5055105;28;20520;-72
2023/09/06 06:26:38;;;;;;;7.50;6.80;;;18.60;99.90;;;;;;5055263;28;20434;-72
2023/09/06 06:29:06;;;;;;;9.20;8.40;;;18.70;99.90;;;;;;5055190;28;20434;-72
2023/09/06 06:31:35;;;;;;;8.03;7.30;;;18.90;99.90;;;;;;5053618;28;20469;-72
2023/09/06 06:34:05;;;;;;;7.30;6.60;;;19.10;99.90;;;;;;5054865;28;20490;-72
2023/09/06 06:36:33;;;;;;;8.63;6.70;;;19.20;99.90;;;;;;5055219;28;20454;-72
2023/09/06 06:39:01;;;;;;;6.57;6.00;;;19.40;99.90;;;;;;5054453;28;20444;-73
2023/09/06 06:41:30;;;;;;;6.47;5.97;;;19.50;99.90;;;;;;5054848;28;20529;-72
2023/09/06 06:43:58;;;;;;;6.53;5.93;;;19.70;99.90;;;;;;5054203;28;20557;-72
2023/09/06 06:46:28;;;;;;;5.37;4.97;;;19.80;99.90;;;;;;5054627;28;20438;-72
2023/09/06 06:48:57;;;;;;;5.80;5.13;;;20.00;99.90;;;;;;5053537;28;20515;-72
2023/09/06 06:51:27;;;;;;;6.10;5.60;;;20.10;99.90;;;;;;5053629;28;20854;-72
2023/09/06 06:53:55;;;;;;;5.93;5.40;;;20.30;99.90;;;;;;5054412;28;20450;-72
2023/09/06 06:56:23;;;;;;;8.23;7.47;;;20.40;99.90;;;;;;5054427;28;20445;-72
2023/09/06 06:58:51;;;;;;;6.80;6.20;;;20.50;99.90;;;;;;5054745;28;20438;-73
2023/09/06 07:01:20;;;;;;;7.60;6.90;;;20.60;99.90;;;;;;5055160;28;20932;-72
2023/09/06 07:03:48;;;;;;;5.33;4.83;;;20.70;99.90;;;;;;5054264;28;20469;-71
2023/09/06 07:06:17;;;;;;;6.90;5.30;;;20.80;99.90;;;;;;5054924;28;20434;-72
2023/09/06 07:08:47;;;;;;;5.73;4.97;;;20.90;99.90;;;;;;5054380;28;20466;-72
2023/09/06 07:11:16;;;;;;;5.67;5.17;;;21.00;99.90;;;;;;5054667;28;20873;-72
2023/09/06 07:13:46;;;;;;;6.10;5.57;;;21.00;99.90;;;;;;5054252;28;20480;-72
2023/09/06 07:16:15;;;;;;;7.00;5.80;;;21.10;99.90;;;;;;5053186;28;20959;-71
2023/09/06 07:18:44;;;;;;;5.57;4.90;;;21.10;99.90;;;;;;5054243;28;20492;-71
2023/09/06 07:21:12;;;;;;;5.00;4.50;;;21.10;99.90;;;;;;5055004;28;20947;-71
2023/09/06 07:23:40;;;;;;;6.67;5.27;;;21.10;99.90;;;;;;5054298;28;20892;-72
2023/09/06 07:26:10;;;;;;;6.07;5.47;;;21.10;99.90;;;;;;5052918;28;20470;-72
2023/09/06 07:28:40;;;;;;;4.93;4.40;;;21.20;99.90;;;;;;5054655;28;20920;-72
2023/09/06 07:31:09;;;;;;;5.30;4.80;;;21.10;99.90;;;;;;5053052;28;20892;-72
2023/09/06 07:33:38;;;;;;;4.97;4.57;;;21.20;99.90;;;;;;5054337;28;20512;-72
2023/09/06 07:36:07;;;;;;;5.43;4.40;;;21.20;99.90;;;;;;5053328;28;20904;-72
2023/09/06 07:38:35;;;;;;;9.23;4.93;;;21.30;99.90;;;;;;5054591;28;20570;-72
2023/09/06 07:41:04;;;;;;;4.57;4.17;;;21.30;99.90;;;;;;5053216;28;20442;-72
2023/09/06 07:43:36;;;;;;;4.23;3.67;;;21.40;99.90;;;;;;5054139;28;20489;-72
2023/09/06 07:46:07;;;;;;;5.10;3.83;;;21.50;99.90;;;;;;5054132;28;20418;-72
2023/09/06 07:48:36;;;;;;;5.40;4.13;;;21.50;99.90;;;;;;5054611;28;20477;-72
2023/09/06 07:51:05;;;;;;;4.17;3.67;;;21.60;99.90;;;;;;5053471;28;20456;-71
2023/09/06 07:53:33;;;;;;;4.60;3.97;;;21.70;99.90;;;;;;5054060;28;20449;-72
2023/09/06 07:56:01;;;;;;;4.70;3.87;;;21.80;99.90;;;;;;5056554;28;20433;-72
2023/09/06 07:58:30;;;;;;;4.20;3.80;;;21.90;99.90;;;;;;5058127;28;20982;-72
2023/09/06 08:01:00;;;;;;;5.87;4.20;;;22.00;99.90;;;;;;5058271;28;20429;-72
2023/09/06 08:03:31;;;;;;;4.50;3.43;;;22.20;99.90;;;;;;5056839;28;21007;-72
2023/09/06 08:05:59;;;;;;;8.67;4.27;;;22.30;99.90;;;;;;5056846;28;20612;-72
2023/09/06 08:08:28;;;;;;;4.23;3.83;;;22.40;99.90;;;;;;5058368;28;20430;-73
2023/09/06 08:10:57;;;;;;;5.53;3.50;;;22.50;99.90;;;;;;5058459;28;20434;-72
2023/09/06 08:13:25;;;;;;;3.90;3.20;;;22.60;99.90;;;;;;5057629;28;20468;-72
2023/09/06 08:15:54;;;;;;;3.77;3.47;;;22.70;99.90;;;;;;5058005;28;20491;-72
2023/09/06 08:18:23;;;;;;;4.50;3.37;;;22.80;99.90;;;;;;5056929;28;20497;-72
2023/09/06 08:20:52;;;;;;;4.83;3.73;;;22.90;99.90;;;;;;5056606;28;20562;-72
2023/09/06 08:23:20;;;;;;;3.83;3.00;;;23.00;99.90;;;;;;5056809;28;20458;-72
2023/09/06 08:25:49;;;;;;;4.90;3.43;;;23.10;99.90;;;;;;5057697;28;20845;-72
2023/09/06 08:28:18;;;;;;;3.27;2.90;;;23.20;99.90;;;;;;5056580;28;20499;-72
2023/09/06 08:30:47;;;;;;;3.83;3.37;;;23.30;99.90;;;;;;5057820;28;20438;-72
2023/09/06 08:33:16;;;;;;;3.77;3.30;;;23.40;99.90;;;;;;5056081;28;20564;-72
2023/09/06 08:35:46;;;;;;;3.50;3.00;;;23.50;99.90;;;;;;5057240;28;20434;-72
2023/09/06 08:38:14;;;;;;;3.47;2.80;;;23.60;99.90;;;;;;5057399;28;20462;-72
2023/09/06 08:40:43;;;;;;;3.40;2.87;;;23.70;99.90;;;;;;5057439;28;20436;-72
2023/09/06 08:43:14;;;;;;;6.70;3.60;;;23.80;99.90;;;;;;5058753;28;20470;-73
2023/09/06 08:45:44;;;;;;;3.40;3.10;;;23.90;99.90;;;;;;5059108;28;20422;-72
2023/09/06 08:48:13;;;;;;;8.40;7.23;;;24.00;99.90;;;;;;5059564;28;20418;-72
2023/09/06 08:50:43;;;;;;;3.27;2.97;;;24.00;99.90;;;;;;5056550;28;20445;-74
2023/09/06 08:53:13;;;;;;;4.03;3.37;;;24.10;99.90;;;;;;5056597;28;20458;-72
2023/09/06 08:55:43;;;;;;;2.87;2.57;;;24.20;99.90;;;;;;5056128;28;20499;-73
2023/09/06 08:58:11;;;;;;;2.50;2.30;;;24.30;99.90;;;;;;5056915;28;20476;-72
2023/09/06 09:00:39;;;;;;;3.23;2.93;;;24.40;99.90;;;;;;5056691;28;20492;-72
2023/09/06 09:03:08;;;;;;;3.80;2.70;;;24.40;99.90;;;;;;5056243;28;20515;-73
2023/09/06 09:05:37;;;;;;;2.87;2.37;;;24.50;99.90;;;;;;5054972;28;20476;-73
2023/09/06 09:08:05;;;;;;;3.33;3.03;;;24.60;99.90;;;;;;5056203;28;20442;-73
2023/09/06 09:10:35;;;;;;;2.60;2.40;;;24.70;99.90;;;;;;5055154;28;20536;-72
2023/09/06 09:13:03;;;;;;;3.03;2.63;;;24.80;99.90;;;;;;5056241;28;20477;-72
2023/09/06 09:15:33;;;;;;;3.83;3.27;;;24.80;99.90;;;;;;5055277;28;20457;-72
2023/09/06 09:18:10;;;;;;;4.07;2.87;;;24.90;99.90;;;;;;5055579;28;20476;-72
2023/09/06 09:20:40;;;;;;;3.73;3.00;;;25.00;99.90;;;;;;5057441;28;20904;-73
2023/09/06 09:23:13;;;;;;;5.13;2.97;;;25.00;99.90;;;;;;5057086;28;20446;-72
2023/09/06 09:25:50;;;;;;;3.10;2.80;;;25.10;99.90;;;;;;5057268;28;20461;-73
2023/09/06 09:28:18;;;;;;;3.50;2.40;;;25.20;99.90;;;;;;5057415;28;20446;-73
2023/09/06 09:30:47;;;;;;;3.80;2.60;;;25.30;99.90;;;;;;5055542;28;20450;-73
2023/09/06 09:33:15;;;;;;;3.30;2.83;;;25.30;99.90;;;;;;5056654;28;20458;-74
2023/09/06 09:35:44;;;;;;;4.40;3.83;;;25.40;99.90;;;;;;5056996;28;20457;-73
2023/09/06 09:38:13;;;;;;;3.97;2.83;;;25.40;99.90;;;;;;5055389;28;20462;-73
2023/09/06 09:40:41;;;;;;;3.63;2.80;;;25.50;99.90;;;;;;5056950;28;20483;-73
2023/09/06 09:43:22;;;;;;;2.90;2.50;;;25.60;99.90;;;;;;5057183;28;20476;-73
2023/09/06 09:45:50;;;;;;;2.73;2.33;;;25.70;99.90;;;;;;5057325;28;20492;-73
2023/09/06 09:48:20;;;;;;;3.80;2.70;;;25.70;99.90;;;;;;5056855;28;20433;-73
2023/09/06 09:50:54;;;;;;;4.30;3.90;;;25.80;99.90;;;;;;5056867;28;20419;-73
2023/09/06 09:53:23;;;;;;;3.27;2.70;;;25.90;99.90;;;;;;5055570;28;20813;-74
2023/09/06 09:55:55;;;;;;;3.63;3.33;;;25.90;99.90;;;;;;5054895;28;20500;-73
2023/09/06 09:58:27;;;;;;;4.27;3.20;;;26.00;99.90;;;;;;5056017;28;20484;-73
2023/09/06 10:00:57;;;;;;;3.33;2.90;;;26.00;99.90;;;;;;5056361;28;20414;-73
2023/09/06 10:03:29;;;;;;;3.23;2.80;;;26.10;99.90;;;;;;5055913;28;20497;-73
2023/09/06 10:05:58;;;;;;;4.00;2.67;;;26.20;99.90;;;;;;5055738;28;20529;-73
2023/09/06 10:08:29;;;;;;;3.53;3.23;;;26.20;99.90;;;;;;5055832;28;20811;-73
2023/09/06 10:10:57;;;;;;;2.87;2.40;;;26.20;99.90;;;;;;5056255;28;20763;-73
2023/09/06 10:13:27;;;;;;;4.07;2.70;;;26.30;99.90;;;;;;5056298;28;20869;-73
2023/09/06 10:15:57;;;;;;;3.03;2.70;;;26.30;99.90;;;;;;5056416;28;20422;-73
2023/09/06 10:18:26;;;;;;;2.97;2.60;;;26.40;99.90;;;;;;5055461;28;20442;-73
2023/09/06 10:20:55;;;;;;;3.40;2.63;;;26.50;99.90;;;;;;5055797;28;20956;-73
2023/09/06 10:23:30;;;;;;;4.87;2.57;;;26.50;99.90;;;;;;5055711;28;20458;-73
2023/09/06 10:26:01;;;;;;;4.03;2.43;;;26.50;99.90;;;;;;5054284;28;20507;-73
2023/09/06 10:28:33;;;;;;;2.93;2.23;;;26.60;99.90;;;;;;5054400;28;20818;-73
2023/09/06 10:31:08;;;;;;;3.30;2.77;;;26.70;99.90;;;;;;5055751;28;20426;-73
2023/09/06 10:33:58;;;;;;;4.33;2.70;;;26.70;99.90;;;;;;5055674;28;20832;-73
2023/09/06 10:36:30;;;;;;;4.60;2.60;;;26.80;99.90;;;;;;5055344;28;20419;-73
2023/09/06 10:39:21;;;;;;;4.17;2.63;;;26.80;99.90;;;;;;5055489;28;20497;-74
2023/09/06 10:42:18;;;;;;;3.33;2.60;;;26.90;99.90;;;;;;5053001;28;20971;-74
2023/09/06 10:45:13;;;;;;;2.50;2.30;;;26.90;99.90;;;;;;5054211;28;20461;-74
2023/09/06 10:47:42;;;;;;;3.27;2.67;;;27.00;99.90;;;;;;5054847;28;20441;-74
2023/09/06 10:50:21;;;;;;;4.00;2.60;;;27.00;99.90;;;;;;5054507;28;20462;-73
2023/09/06 10:52:53;;;;;;;3.80;2.43;;;27.10;99.90;;;;;;5054218;28;20426;-73
2023/09/06 10:55:24;;;;;;;2.80;2.20;;;27.10;99.90;;;;;;5054221;28;20433;-73
2023/09/06 10:58:06;;;;;;;2.63;2.10;;;27.20;99.90;;;;;;5052783;28;20943;-73
2023/09/06 11:00:36;;;;;;;2.00;1.77;;;27.30;99.90;;;;;;5053956;28;20874;-74
2023/09/06 11:03:21;;;;;;;3.00;2.33;;;27.30;99.90;;;;;;5052861;28;20537;-74
2023/09/06 11:05:54;;;;;;;2.93;2.10;;;27.40;99.90;;;;;;5053903;28;20446;-73
2023/09/06 11:08:29;;;;;;;2.67;2.10;;;27.40;99.90;;;;;;5054135;28;20418;-73
2023/09/06 11:11:07;;;;;;;2.43;2.07;;;27.50;99.90;;;;;;5053774;28;20425;-73
2023/09/06 11:13:37;;;;;;;4.30;2.30;;;27.50;99.90;;;;;;5053853;28;20464;-74
2023/09/06 11:16:12;;;;;;;4.90;2.80;;;27.50;99.90;;;;;;5053977;28;20967;-73
2023/09/06 11:18:44;;;;;;;4.87;2.60;;;27.60;99.90;;;;;;5053816;28;21046;-73
2023/09/06 11:21:17;;;;;;;4.10;2.97;;;27.60;99.90;;;;;;5052436;28;20500;-74
2023/09/06 11:23:50;;;;;;;3.93;3.33;;;27.70;99.90;;;;;;5053834;28;20864;-74
2023/09/06 11:26:19;;;;;;;2.53;2.20;;;27.70;99.90;;;;;;5053808;28;20457;-74
2023/09/06 11:28:48;;;;;;;2.80;2.10;;;27.80;99.90;;;;;;5053891;28;20438;-74
2023/09/06 11:31:29;;;;;;;3.03;2.03;;;27.80;99.90;;;;;;5051496;28;20550;-74
2023/09/06 11:34:04;;;;;;;2.77;1.90;;;27.90;99.90;;;;;;5053696;28;20831;-74
2023/09/06 11:36:36;;;;;;;2.67;2.00;;;27.90;99.90;;;;;;5053649;28;20417;-74
2023/09/06 11:39:15;;;;;;;2.60;1.90;;;27.90;99.90;;;;;;5053490;28;20423;-74
2023/09/06 11:41:44;;;;;;;2.87;2.30;;;28.00;99.90;;;;;;5053607;28;20414;-74
2023/09/06 11:44:14;;;;;;;2.37;1.80;;;28.00;99.90;;;;;;5053423;28;21022;-73
2023/09/06 11:46:44;;;;;;;2.70;2.10;;;28.00;99.90;;;;;;5053505;28;20517;-74
2023/09/06 11:49:14;;;;;;;3.97;2.13;;;28.10;99.90;;;;;;5053406;28;20545;-73
2023/09/06 11:51:46;;;;;;;3.20;2.30;;;28.10;99.90;;;;;;5052320;28;20921;-73
2023/09/06 11:54:15;;;;;;;2.10;1.87;;;28.10;99.90;;;;;;5053472;28;20487;-73
2023/09/06 11:56:47;;;;;;;2.53;2.33;;;28.20;99.90;;;;;;5053255;28;20520;-73
2023/09/06 11:59:20;;;;;;;3.53;2.43;;;28.20;99.90;;;;;;5053652;28;20427;-74
2023/09/06 12:01:55;;;;;;;2.60;2.10;;;28.20;99.90;;;;;;5053296;28;20437;-73
2023/09/06 12:04:26;;;;;;;3.10;2.07;;;28.20;99.90;;;;;;5053456;28;20473;-74
2023/09/06 12:06:57;;;;;;;2.20;2.00;;;28.30;99.90;;;;;;5054082;28;20484;-73
2023/09/06 12:09:26;;;;;;;2.27;1.90;;;28.30;99.90;;;;;;5052192;28;20446;-73
2023/09/06 12:11:55;;;;;;;2.33;1.93;;;28.30;99.90;;;;;;5053350;28;20496;-73
2023/09/06 12:14:23;;;;;;;2.27;1.83;;;28.40;99.90;;;;;;5053518;28;20458;-73
2023/09/06 12:16:53;;;;;;;3.33;1.87;;;28.40;99.90;;;;;;5052222;28;20449;-73
2023/09/06 12:19:21;;;;;;;2.40;1.80;;;28.40;99.90;;;;;;5053738;28;20945;-73
2023/09/06 12:21:49;;;;;;;4.93;2.17;;;28.40;99.90;;;;;;5052109;28;20446;-74
2023/09/06 12:24:18;;;;;;;2.70;2.13;;;28.50;99.90;;;;;;5052337;28;20848;-73
2023/09/06 12:26:47;;;;;;;3.07;2.47;;;28.50;99.90;;;;;;5051967;28;20446;-74
2023/09/06 12:29:16;;;;;;;2.97;2.63;;;28.50;99.90;;;;;;5051998;28;20872;-74
2023/09/06 12:31:45;;;;;;;2.40;2.20;;;28.60;99.90;;;;;;5053336;28;20511;-74
2023/09/06 12:34:14;;;;;;;1.90;1.70;;;28.60;99.90;;;;;;5053265;28;20465;-74
2023/09/06 12:36:43;;;;;;;5.57;4.97;;;28.60;99.90;;;;;;5053487;28;20530;-74
2023/09/06 12:39:11;;;;;;;2.10;1.70;;;28.70;99.90;;;;;;5053410;28;20537;-74
2023/09/06 12:41:39;;;;;;;3.77;2.00;;;28.70;99.90;;;;;;5054175;28;20493;-74
2023/09/06 12:44:08;;;;;;;3.30;2.10;;;28.80;99.90;;;;;;5056752;28;20453;-74
2023/09/06 12:46:36;;;;;;;5.93;2.13;;;28.80;99.90;;;;;;5056813;28;20429;-74
2023/09/06 12:49:05;;;;;;;3.47;1.77;;;28.80;99.90;;;;;;5056776;28;20491;-74
2023/09/06 12:51:36;;;;;;;2.43;2.00;;;28.90;99.90;;;;;;5056889;28;20430;-74
2023/09/06 12:54:05;;;;;;;7.23;1.93;;;28.90;99.90;;;;;;5056469;28;20490;-74
2023/09/06 12:56:35;;;;;;;2.30;2.10;;;28.90;99.90;;;;;;5056915;28;20433;-74
2023/09/06 12:59:04;;;;;;;2.27;2.07;;;29.00;99.90;;;;;;5056352;28;20533;-74
2023/09/06 13:01:32;;;;;;;2.87;2.20;;;29.00;99.90;;;;;;5056122;28;20461;-74